createdAt,value
2022-10-31T00:01:36.568Z,6.90
2022-10-31T00:04:43.830Z,6.50
2022-10-31T00:07:51.101Z,6.50
2022-10-31T00:10:58.921Z,6.10
2022-10-31T00:14:06.269Z,6.30
2022-10-31T00:17:13.533Z,6.20
2022-10-31T00:20:21.278Z,6.70
2022-10-31T00:23:28.642Z,6.00
2022-10-31T00:26:35.811Z,5.80
2022-10-31T00:29:43.404Z,6.60
2022-10-31T00:32:50.228Z,6.30
2022-10-31T00:35:57.873Z,6.10
2022-10-31T00:39:05.459Z,6.90
2022-10-31T00:42:12.240Z,5.90
2022-10-31T00:45:19.891Z,6.00
2022-10-31T00:48:27.527Z,5.90
2022-10-31T00:51:34.327Z,6.40
2022-10-31T00:54:41.885Z,5.70
2022-10-31T00:57:48.622Z,6.50
2022-10-31T01:00:56.464Z,6.40
2022-10-31T01:04:04.364Z,6.50
2022-10-31T01:07:11.234Z,6.00
2022-10-31T01:10:18.560Z,5.50
2022-10-31T01:13:26.191Z,5.60
2022-10-31T01:16:33.233Z,6.00
2022-10-31T01:19:41.039Z,5.90
2022-10-31T01:22:48.459Z,5.80
2022-10-31T01:25:55.677Z,6.20
2022-10-31T01:29:03.383Z,5.90
2022-10-31T01:32:10.537Z,5.80
2022-10-31T01:35:17.842Z,6.20
2022-10-31T01:38:25.338Z,6.20
2022-10-31T01:41:32.570Z,7.00
2022-10-31T01:44:39.852Z,6.40
2022-10-31T01:47:49.207Z,6.40
2022-10-31T01:50:56.584Z,6.50
2022-10-31T01:54:03.900Z,6.90
2022-10-31T01:57:11.336Z,8.00
2022-10-31T02:00:19.250Z,6.90
2022-10-31T02:03:26.533Z,6.60
2022-10-31T02:06:33.696Z,6.90
2022-10-31T02:09:41.253Z,6.80
2022-10-31T02:12:48.539Z,5.70
2022-10-31T02:15:55.930Z,5.40
2022-10-31T02:19:03.395Z,5.30
2022-10-31T02:22:10.471Z,6.10
2022-10-31T02:25:18.248Z,5.70
2022-10-31T02:28:25.743Z,5.80
2022-10-31T02:31:32.700Z,5.70
2022-10-31T02:34:40.283Z,5.00
2022-10-31T02:37:47.187Z,6.10
2022-10-31T02:40:54.729Z,6.80
2022-10-31T02:44:02.338Z,5.30
2022-10-31T02:47:09.368Z,5.80
2022-10-31T02:50:16.838Z,6.10
2022-10-31T02:53:24.615Z,6.30
2022-10-31T02:56:31.582Z,7.10
2022-10-31T02:59:39.370Z,7.20
2022-10-31T03:02:46.981Z,6.20
2022-10-31T03:05:53.871Z,6.60
2022-10-31T03:09:01.827Z,6.40
2022-10-31T03:12:09.156Z,6.30
2022-10-31T03:15:16.564Z,6.30
2022-10-31T03:18:24.275Z,6.70
2022-10-31T03:21:31.512Z,8.60
2022-10-31T03:24:38.734Z,7.10
2022-10-31T03:27:45.965Z,7.10
2022-10-31T03:30:53.604Z,7.20
2022-10-31T03:34:00.875Z,7.40
2022-10-31T03:37:08.242Z,9.00
2022-10-31T03:40:16.084Z,10.10
2022-10-31T03:46:30.759Z,9.80
2022-10-31T03:49:38.487Z,10.80
2022-10-31T03:52:45.459Z,10.30
2022-10-31T03:55:53.165Z,10.30
2022-10-31T03:59:00.639Z,10.80
2022-10-31T04:02:07.701Z,10.80
2022-10-31T04:05:15.428Z,9.60
2022-10-31T04:08:23.172Z,9.00
2022-10-31T04:11:30.278Z,10.30
2022-10-31T04:14:38.131Z,9.30
2022-10-31T04:17:45.686Z,9.60
2022-10-31T04:20:52.747Z,9.60
2022-10-31T04:23:59.961Z,10.10
2022-10-31T04:27:06.822Z,11.60
2022-10-31T04:30:14.447Z,10.70
2022-10-31T04:33:22.441Z,11.30
2022-10-31T04:36:29.468Z,11.30
2022-10-31T04:39:37.186Z,10.20
2022-10-31T04:42:45.075Z,10.50
2022-10-31T04:45:51.962Z,11.30
2022-10-31T04:48:59.669Z,11.80
2022-10-31T04:52:07.117Z,10.70
2022-10-31T04:55:14.652Z,12.50
2022-10-31T04:58:22.425Z,11.90
2022-10-31T05:01:29.569Z,12.70
2022-10-31T05:04:37.443Z,16.20
2022-10-31T05:07:44.825Z,12.60
2022-10-31T05:10:51.821Z,12.10
2022-10-31T05:13:59.934Z,11.30
2022-10-31T05:17:07.514Z,12.10
2022-10-31T05:20:15.078Z,11.30
2022-10-31T05:23:22.624Z,12.50
2022-10-31T05:26:29.976Z,12.60
2022-10-31T05:29:37.513Z,12.20
2022-10-31T05:32:45.401Z,13.60
2022-10-31T05:35:52.793Z,13.90
2022-10-31T05:39:00.159Z,14.30
2022-10-31T05:42:07.252Z,15.90
2022-10-31T05:45:15.245Z,15.90
2022-10-31T05:48:22.436Z,16.60
2022-10-31T05:51:29.490Z,15.60
2022-10-31T05:54:37.412Z,16.30
2022-10-31T05:57:44.796Z,18.20
2022-10-31T06:00:52.299Z,18.10
2022-10-31T06:03:59.957Z,18.20
2022-10-31T06:07:07.713Z,15.90
2022-10-31T06:10:15.172Z,19.80
2022-10-31T06:13:22.819Z,17.10
2022-10-31T06:16:30.234Z,18.40
2022-10-31T06:19:38.004Z,19.30
2022-10-31T06:22:45.857Z,19.40
2022-10-31T06:25:52.956Z,18.40
2022-10-31T06:29:03.134Z,19.00
2022-10-31T06:32:01.359Z,20.50
2022-10-31T06:35:08.293Z,18.90
2022-10-31T06:38:15.727Z,19.50
2022-10-31T06:41:23.047Z,18.90
2022-10-31T06:44:30.301Z,19.90
2022-10-31T06:47:50.843Z,17.70
2022-10-31T06:50:42.713Z,18.00
2022-10-31T06:53:50.204Z,18.20
2022-10-31T06:56:57.855Z,19.50
2022-10-31T07:00:05.333Z,18.20
2022-10-31T07:03:12.711Z,19.30
2022-10-31T07:06:20.085Z,18.20
2022-10-31T07:09:27.669Z,19.60
2022-10-31T07:12:35.027Z,18.10
2022-10-31T07:15:42.396Z,18.60
2022-10-31T07:18:49.847Z,17.70
2022-10-31T07:21:57.252Z,18.00
2022-10-31T07:25:04.629Z,17.70
2022-10-31T07:28:12.370Z,16.30
2022-10-31T07:31:19.386Z,15.80
2022-10-31T07:34:26.974Z,16.90
2022-10-31T07:37:34.673Z,15.90
2022-10-31T07:40:41.726Z,15.80
2022-10-31T07:43:49.506Z,16.60
2022-10-31T07:46:57.286Z,16.10
2022-10-31T07:50:04.188Z,16.20
2022-10-31T07:53:12.042Z,18.80
2022-10-31T07:56:19.568Z,17.80
2022-10-31T07:59:26.623Z,18.30
2022-10-31T08:02:34.522Z,16.60
2022-10-31T08:05:41.554Z,17.00
2022-10-31T08:08:49.184Z,16.50
2022-10-31T08:11:57.154Z,17.20
2022-10-31T08:15:04.219Z,15.90
2022-10-31T08:18:12.216Z,15.70
2022-10-31T08:21:20.241Z,15.60
2022-10-31T08:24:27.552Z,23.10
2022-10-31T08:27:35.664Z,21.70
2022-10-31T08:30:45.657Z,16.80
2022-10-31T08:33:52.805Z,18.90
2022-10-31T08:37:00.716Z,21.20
2022-10-31T08:40:08.120Z,23.00
2022-10-31T08:43:15.817Z,21.90
2022-10-31T08:46:23.465Z,21.30
2022-10-31T08:49:30.935Z,20.40
2022-10-31T08:53:03.494Z,20.50
2022-10-31T08:55:42.741Z,22.40
2022-10-31T08:58:50.512Z,21.10
2022-10-31T09:01:58.267Z,22.30
2022-10-31T09:05:05.306Z,22.00
2022-10-31T09:08:16.398Z,21.80
2022-10-31T09:11:14.028Z,22.70
2022-10-31T09:14:21.060Z,21.80
2022-10-31T09:17:28.792Z,21.90
2022-10-31T09:20:35.777Z,21.00
2022-10-31T09:23:43.280Z,21.60
2022-10-31T09:26:50.846Z,20.10
2022-10-31T09:29:58.150Z,21.80
2022-10-31T09:33:05.443Z,19.70
2022-10-31T09:36:12.927Z,21.50
2022-10-31T09:39:20.159Z,20.80
2022-10-31T09:42:27.873Z,21.40
2022-10-31T09:45:34.892Z,21.80
2022-10-31T09:48:42.573Z,19.60
2022-10-31T09:51:52.959Z,19.30
2022-10-31T09:55:00.077Z,19.40
2022-10-31T09:58:07.514Z,20.50
2022-10-31T10:01:15.345Z,19.40
2022-10-31T10:04:22.233Z,19.10
2022-10-31T10:07:29.804Z,21.20
2022-10-31T10:10:36.948Z,23.00
2022-10-31T10:13:44.260Z,22.80
2022-10-31T10:16:52.114Z,22.30
2022-10-31T10:17:47.994Z,22.30
2022-10-31T10:18:54.435Z,22.90
2022-10-31T10:19:37.556Z,20.50
2022-10-31T10:20:54.523Z,22.10
2022-10-31T10:21:38.028Z,20.60
2022-10-31T10:22:42.804Z,19.30
2022-10-31T10:23:25.963Z,19.20
2022-10-31T10:24:09.079Z,20.40
2022-10-31T10:24:54.905Z,21.70
2022-10-31T10:25:38.374Z,20.60
2022-10-31T10:26:43.166Z,20.20
2022-10-31T10:28:03.106Z,20.20
2022-10-31T10:31:11.990Z,19.50
2022-10-31T10:34:19.229Z,20.50
2022-10-31T10:36:49.728Z,20.20
2022-10-31T10:37:53.592Z,19.90
2022-10-31T10:40:53.486Z,20.00
2022-10-31T10:43:57.529Z,20.40
2022-10-31T10:47:04.504Z,19.10
2022-10-31T10:50:11.826Z,18.50
2022-10-31T10:53:19.637Z,17.00
2022-10-31T10:56:26.883Z,17.10
2022-10-31T10:59:34.138Z,16.10
2022-10-31T11:02:42.873Z,13.40
2022-10-31T11:05:52.272Z,13.10
2022-10-31T11:08:59.561Z,9.00
2022-10-31T11:12:07.004Z,9.80
2022-10-31T11:15:13.938Z,12.50
2022-10-31T11:18:18.565Z,13.00
2022-10-31T11:21:26.486Z,12.40
2022-10-31T11:24:33.405Z,10.30
2022-10-31T11:27:40.996Z,11.00
2022-10-31T11:30:48.164Z,11.40
2022-10-31T11:33:55.385Z,12.40
2022-10-31T11:37:02.548Z,13.80
2022-10-31T11:40:09.935Z,12.20
2022-10-31T11:43:17.103Z,12.90
2022-10-31T11:46:24.450Z,12.60
2022-10-31T11:49:31.277Z,12.60
2022-10-31T11:52:38.875Z,12.10
2022-10-31T11:55:46.235Z,13.60
2022-10-31T11:58:53.397Z,13.50
2022-10-31T12:02:01.001Z,14.90
2022-10-31T12:05:08.247Z,14.40
2022-10-31T12:08:15.384Z,14.90
2022-10-31T12:11:23.300Z,15.50
2022-10-31T12:14:30.538Z,14.40
2022-10-31T12:17:38.008Z,13.40
2022-10-31T12:20:45.202Z,14.40
2022-10-31T12:23:52.204Z,17.30
2022-10-31T12:26:59.635Z,14.90
2022-10-31T12:30:06.886Z,13.80
2022-10-31T12:33:15.003Z,19.60
2022-10-31T12:36:21.981Z,14.70
2022-10-31T12:39:29.589Z,13.70
2022-10-31T12:42:36.701Z,12.50
2022-10-31T12:45:43.845Z,14.40
2022-10-31T12:48:55.491Z,12.70
2022-10-31T12:51:54.365Z,13.40
2022-10-31T12:55:01.907Z,13.90
2022-10-31T12:58:09.367Z,12.80
2022-10-31T13:01:16.342Z,12.20
2022-10-31T13:04:23.911Z,13.00
2022-10-31T13:07:31.643Z,12.40
2022-10-31T13:10:38.531Z,11.40
2022-10-31T13:13:46.284Z,11.60
2022-10-31T13:16:53.480Z,10.00
2022-10-31T13:20:00.715Z,7.50
2022-10-31T13:23:18.146Z,7.30
2022-10-31T13:26:12.565Z,4.70
2022-10-31T13:29:20.132Z,3.90
2022-10-31T13:32:27.687Z,3.50
2022-10-31T13:35:34.578Z,3.20
2022-10-31T13:38:42.139Z,3.50
2022-10-31T13:41:49.367Z,3.50
2022-10-31T13:44:56.520Z,3.20
2022-10-31T13:48:04.399Z,3.80
2022-10-31T13:51:12.288Z,4.00
2022-10-31T13:54:19.553Z,4.00
2022-10-31T13:57:30.295Z,4.50
2022-10-31T14:00:30.746Z,5.50
2022-10-31T14:04:03.616Z,5.90
2022-10-31T14:06:42.806Z,6.30
2022-10-31T14:09:50.449Z,6.50
2022-10-31T14:12:57.618Z,6.40
2022-10-31T14:16:04.814Z,6.80
2022-10-31T14:19:12.822Z,7.90
2022-10-31T14:22:19.850Z,7.80
2022-10-31T14:25:27.546Z,7.50
2022-10-31T14:28:35.157Z,8.30
2022-10-31T14:31:43.686Z,7.40
2022-10-31T14:34:51.488Z,7.10
2022-10-31T14:37:59.247Z,7.80
2022-10-31T14:41:06.755Z,8.00
2022-10-31T14:44:14.392Z,7.10
2022-10-31T14:47:21.466Z,8.80
2022-10-31T14:50:29.141Z,8.00
2022-10-31T14:53:36.994Z,8.20
2022-10-31T14:56:43.999Z,8.00
2022-10-31T14:59:51.787Z,8.20
2022-10-31T15:03:00.004Z,7.60
2022-10-31T15:06:07.352Z,7.60
2022-10-31T15:09:14.638Z,8.70
2022-10-31T15:12:23.370Z,8.00
2022-10-31T15:15:30.352Z,8.30
2022-10-31T15:18:38.544Z,7.60
2022-10-31T15:21:45.453Z,7.60
2022-10-31T15:24:53.577Z,7.00
2022-10-31T15:28:01.974Z,8.30
2022-10-31T15:31:09.216Z,8.40
2022-10-31T15:34:16.828Z,8.00
2022-10-31T15:37:23.876Z,7.20
2022-10-31T15:40:31.278Z,10.30
2022-10-31T15:43:39.063Z,17.10
2022-10-31T15:46:46.169Z,22.70
2022-10-31T15:49:53.779Z,18.90
2022-10-31T15:53:02.409Z,25.70
2022-10-31T15:56:09.607Z,27.80
2022-10-31T15:59:16.920Z,28.20
2022-10-31T16:02:25.196Z,28.90
2022-10-31T16:05:32.835Z,29.30
2022-10-31T16:08:40.777Z,29.90
2022-10-31T16:11:48.021Z,31.80
2022-10-31T16:14:55.069Z,30.90
2022-10-31T16:18:02.822Z,32.40
2022-10-31T16:21:10.085Z,32.80
2022-10-31T16:24:17.188Z,34.80
2022-10-31T16:27:24.637Z,33.60
2022-10-31T16:30:31.962Z,33.70
2022-10-31T16:33:39.303Z,34.60
2022-10-31T16:36:46.649Z,34.50
2022-10-31T16:39:54.046Z,34.60
2022-10-31T16:43:01.376Z,37.70
2022-10-31T16:46:08.868Z,38.90
2022-10-31T16:49:15.990Z,40.00
2022-10-31T16:52:23.446Z,39.00
2022-10-31T16:55:30.855Z,39.50
2022-10-31T16:58:38.137Z,39.80
2022-10-31T17:01:45.581Z,40.60
2022-10-31T17:04:55.837Z,40.60
2022-10-31T17:07:53.540Z,44.80
2022-10-31T17:11:01.381Z,45.00
2022-10-31T17:14:09.327Z,46.50
2022-10-31T17:17:16.512Z,46.00
2022-10-31T17:20:23.723Z,45.20
2022-10-31T17:23:31.554Z,46.70
2022-10-31T17:26:38.525Z,44.20
2022-10-31T17:29:46.392Z,45.90
2022-10-31T17:32:53.955Z,46.10
2022-10-31T17:36:00.847Z,45.20
2022-10-31T17:39:08.358Z,45.10
2022-10-31T17:42:15.629Z,46.20
2022-10-31T17:45:22.568Z,46.80
2022-10-31T17:48:30.330Z,44.30
2022-10-31T17:51:37.552Z,43.50
2022-10-31T17:54:45.393Z,43.00
2022-10-31T17:57:52.987Z,39.40
2022-10-31T18:01:00.227Z,38.40
2022-10-31T18:04:07.044Z,38.30
2022-10-31T18:07:14.297Z,39.40
2022-10-31T18:10:21.643Z,39.20
2022-10-31T18:13:28.965Z,40.60
2022-10-31T18:19:43.692Z,38.00
2022-10-31T18:22:50.717Z,38.10
2022-10-31T18:25:57.980Z,39.70
2022-10-31T18:29:05.429Z,39.20
2022-10-31T18:32:12.656Z,37.90
2022-10-31T18:35:19.491Z,38.30
2022-10-31T18:38:27.211Z,39.40
2022-10-31T18:41:34.212Z,38.70
2022-10-31T18:44:41.418Z,38.60
2022-10-31T18:47:48.917Z,36.90
2022-10-31T18:50:56.211Z,38.00
2022-10-31T18:54:03.517Z,37.40
2022-10-31T18:57:10.556Z,38.70
2022-10-31T19:00:17.968Z,41.10
2022-10-31T19:03:26.476Z,39.30
2022-10-31T19:06:33.743Z,42.30
2022-10-31T19:09:41.220Z,40.80
2022-10-31T19:12:48.523Z,40.10
2022-10-31T19:15:55.585Z,39.80
2022-10-31T19:19:02.463Z,39.00
2022-10-31T19:22:09.870Z,38.20
2022-10-31T19:25:18.068Z,37.90
2022-10-31T19:28:25.428Z,38.10
2022-10-31T19:31:32.920Z,38.10
2022-10-31T19:34:40.065Z,38.80
2022-10-31T19:37:48.643Z,40.10
2022-10-31T19:40:56.343Z,39.00
2022-10-31T19:44:03.170Z,41.50
2022-10-31T19:47:10.755Z,39.90
2022-10-31T19:50:18.100Z,41.60
2022-10-31T19:53:25.750Z,42.80
2022-10-31T19:56:33.200Z,41.60
2022-10-31T19:59:40.594Z,42.70
2022-10-31T20:02:48.148Z,41.30
2022-10-31T20:05:55.626Z,43.40
2022-10-31T20:09:02.716Z,42.00
2022-10-31T20:12:09.809Z,42.90
2022-10-31T20:15:17.026Z,43.30
2022-10-31T20:18:25.105Z,41.80
2022-10-31T20:21:32.343Z,42.40
2022-10-31T20:24:39.457Z,43.60
2022-10-31T20:27:47.125Z,41.90
2022-10-31T20:30:54.534Z,42.60
2022-10-31T20:34:01.675Z,44.30
2022-10-31T20:37:09.119Z,43.10
2022-10-31T20:40:16.240Z,43.10
2022-10-31T20:43:23.298Z,45.10
2022-10-31T20:46:30.786Z,43.00
2022-10-31T20:49:37.580Z,45.00
2022-10-31T20:52:45.091Z,43.00
2022-10-31T20:55:52.142Z,45.20
2022-10-31T20:58:58.923Z,43.90
2022-10-31T21:02:06.625Z,42.80
2022-10-31T21:05:13.923Z,43.10
2022-10-31T21:08:20.664Z,42.20
2022-10-31T21:11:28.163Z,41.20
2022-10-31T21:14:35.271Z,40.90
2022-10-31T21:17:42.516Z,40.20
2022-10-31T21:20:49.917Z,40.00
2022-10-31T21:23:56.696Z,40.50
2022-10-31T21:27:06.267Z,38.70
2022-10-31T21:30:05.251Z,40.30
2022-10-31T21:33:12.113Z,40.50
2022-10-31T21:36:19.627Z,40.00
2022-10-31T21:39:27.002Z,40.40
2022-10-31T21:42:33.783Z,39.20
2022-10-31T21:45:41.383Z,38.10
2022-10-31T21:48:48.622Z,39.60
2022-10-31T21:51:55.854Z,37.60
2022-10-31T21:55:03.485Z,38.70
2022-10-31T21:58:10.602Z,41.00
2022-10-31T22:01:17.802Z,40.30
2022-10-31T22:04:25.309Z,39.00
2022-10-31T22:07:32.478Z,41.00
2022-10-31T22:10:39.540Z,40.00
2022-10-31T22:13:46.606Z,38.00
2022-10-31T22:16:53.553Z,38.60
2022-10-31T22:20:00.481Z,39.30
2022-10-31T22:23:07.633Z,39.00
2022-10-31T22:26:15.189Z,39.00
2022-10-31T22:29:22.468Z,41.50
2022-10-31T22:32:29.703Z,40.70
2022-10-31T22:35:37.073Z,39.90
2022-10-31T22:38:43.958Z,42.60
2022-10-31T22:41:51.718Z,41.30
2022-10-31T22:44:59.269Z,41.50
2022-10-31T22:48:06.109Z,42.60
2022-10-31T22:51:13.710Z,43.60
2022-10-31T22:54:21.241Z,43.90
2022-10-31T22:57:28.012Z,43.60
2022-10-31T23:00:35.552Z,45.10
2022-10-31T23:03:42.417Z,43.70
2022-10-31T23:06:49.755Z,46.50
2022-10-31T23:09:57.285Z,45.40
2022-10-31T23:13:03.997Z,46.60
2022-10-31T23:16:11.604Z,45.20
2022-10-31T23:19:18.868Z,46.60
2022-10-31T23:22:25.878Z,46.20
2022-10-31T23:25:33.071Z,47.60
2022-10-31T23:28:40.120Z,48.90
2022-10-31T23:31:47.738Z,49.30
2022-10-31T23:34:54.919Z,49.90
2022-10-31T23:38:02.297Z,47.50
2022-10-31T23:41:09.823Z,48.80
2022-10-31T23:44:16.703Z,47.50
2022-10-31T23:47:24.286Z,47.50
2022-10-31T23:50:31.887Z,50.00
2022-10-31T23:53:38.670Z,48.70
2022-10-31T23:56:45.874Z,48.90
2022-10-31T23:59:53.007Z,48.30
